sensor_id;sensor_type;location;lat;lon;timestamp;pressure;altitude;pressure_sealevel;temperature;humidity
37904;BME280;23738;50.422;18.758;2023-02-28T00:00:34;99731.45;;;2.04;58.40
37904;BME280;23738;50.422;18.758;2023-02-28T00:03:03;99729.80;;;2.05;58.53
37904;BME280;23738;50.422;18.758;2023-02-28T00:05:31;99728.59;;;2.02;58.53
37904;BME280;23738;50.422;18.758;2023-02-28T00:07:59;99726.21;;;2.04;58.59
37904;BME280;23738;50.422;18.758;2023-02-28T00:10:30;99728.89;;;2.05;58.49
37904;BME280;23738;50.422;18.758;2023-02-28T00:13:02;99732.59;;;2.02;58.48
37904;BME280;23738;50.422;18.758;2023-02-28T00:15:30;99734.68;;;2.02;58.62
37904;BME280;23738;50.422;18.758;2023-02-28T00:17:58;99730.23;;;1.99;58.68
37904;BME280;23738;50.422;18.758;2023-02-28T00:20:25;99727.89;;;1.96;58.56
37904;BME280;23738;50.422;18.758;2023-02-28T00:22:54;99730.23;;;1.90;58.57
37904;BME280;23738;50.422;18.758;2023-02-28T00:25:24;99732.95;;;1.86;58.54
37904;BME280;23738;50.422;18.758;2023-02-28T00:27:53;99734.76;;;1.90;58.76
37904;BME280;23738;50.422;18.758;2023-02-28T00:30:22;99732.92;;;1.96;58.91
37904;BME280;23738;50.422;18.758;2023-02-28T00:32:51;99732.50;;;1.97;58.84
37904;BME280;23738;50.422;18.758;2023-02-28T00:35:19;99738.11;;;1.96;58.97
37904;BME280;23738;50.422;18.758;2023-02-28T00:37:48;99734.01;;;1.93;58.78
37904;BME280;23738;50.422;18.758;2023-02-28T00:40:16;99732.80;;;1.86;58.58
37904;BME280;23738;50.422;18.758;2023-02-28T00:42:44;99731.33;;;1.80;58.89
37904;BME280;23738;50.422;18.758;2023-02-28T00:45:11;99734.14;;;1.75;58.87
37904;BME280;23738;50.422;18.758;2023-02-28T00:47:39;99730.29;;;1.69;59.01
37904;BME280;23738;50.422;18.758;2023-02-28T00:50:09;99728.26;;;1.63;59.01
37904;BME280;23738;50.422;18.758;2023-02-28T00:52:37;99730.90;;;1.60;59.30
37904;BME280;23738;50.422;18.758;2023-02-28T00:55:06;99731.58;;;1.58;59.06
37904;BME280;23738;50.422;18.758;2023-02-28T00:57:34;99739.21;;;1.56;59.27
37904;BME280;23738;50.422;18.758;2023-02-28T01:00:02;99742.08;;;1.52;59.27
37904;BME280;23738;50.422;18.758;2023-02-28T01:02:30;99738.23;;;1.53;59.02
37904;BME280;23738;50.422;18.758;2023-02-28T01:04:58;99734.69;;;1.49;59.30
37904;BME280;23738;50.422;18.758;2023-02-28T01:07:26;99732.41;;;1.44;59.21
37904;BME280;23738;50.422;18.758;2023-02-28T01:09:54;99728.73;;;1.43;59.09
37904;BME280;23738;50.422;18.758;2023-02-28T01:12:21;99730.02;;;1.42;59.32
37904;BME280;23738;50.422;18.758;2023-02-28T01:14:49;99731.84;;;1.38;59.22
37904;BME280;23738;50.422;18.758;2023-02-28T01:17:17;99730.71;;;1.32;59.39
37904;BME280;23738;50.422;18.758;2023-02-28T01:19:44;99735.02;;;1.30;59.46
37904;BME280;23738;50.422;18.758;2023-02-28T01:22:12;99733.72;;;1.29;59.48
37904;BME280;23738;50.422;18.758;2023-02-28T01:24:39;99728.52;;;1.22;59.68
37904;BME280;23738;50.422;18.758;2023-02-28T01:27:08;99729.61;;;1.19;59.45
37904;BME280;23738;50.422;18.758;2023-02-28T01:29:35;99728.65;;;1.23;59.80
37904;BME280;23738;50.422;18.758;2023-02-28T01:32:03;99732.67;;;1.25;59.69
37904;BME280;23738;50.422;18.758;2023-02-28T01:34:31;99733.20;;;1.25;59.74
37904;BME280;23738;50.422;18.758;2023-02-28T01:36:59;99733.15;;;1.23;59.76
37904;BME280;23738;50.422;18.758;2023-02-28T01:39:26;99733.23;;;1.19;59.70
37904;BME280;23738;50.422;18.758;2023-02-28T01:41:54;99733.09;;;1.19;59.94
37904;BME280;23738;50.422;18.758;2023-02-28T01:45:04;99733.34;;;1.23;60.10
37904;BME280;23738;50.422;18.758;2023-02-28T01:47:38;99732.42;;;1.26;59.96
37904;BME280;23738;50.422;18.758;2023-02-28T01:50:12;99730.52;;;1.30;60.00
37904;BME280;23738;50.422;18.758;2023-02-28T01:52:42;99725.87;;;1.28;60.24
37904;BME280;23738;50.422;18.758;2023-02-28T01:55:12;99720.96;;;1.26;60.11
37904;BME280;23738;50.422;18.758;2023-02-28T01:58:02;99723.34;;;1.24;60.28
37904;BME280;23738;50.422;18.758;2023-02-28T02:00:47;99722.67;;;1.19;60.01
37904;BME280;23738;50.422;18.758;2023-02-28T02:03:17;99718.52;;;1.14;60.16
37904;BME280;23738;50.422;18.758;2023-02-28T02:05:46;99712.56;;;1.10;60.51
37904;BME280;23738;50.422;18.758;2023-02-28T02:08:18;99714.48;;;1.12;60.53
37904;BME280;23738;50.422;18.758;2023-02-28T02:10:49;99715.86;;;1.10;60.31
37904;BME280;23738;50.422;18.758;2023-02-28T02:13:36;99715.09;;;1.04;60.21
37904;BME280;23738;50.422;18.758;2023-02-28T02:16:15;99712.39;;;0.96;60.25
37904;BME280;23738;50.422;18.758;2023-02-28T02:18:51;99711.42;;;0.85;60.28
37904;BME280;23738;50.422;18.758;2023-02-28T02:24:34;99714.23;;;0.68;60.43
37904;BME280;23738;50.422;18.758;2023-02-28T02:27:20;99713.42;;;0.57;60.62
37904;BME280;23738;50.422;18.758;2023-02-28T02:36:14;99712.83;;;0.31;60.73
37904;BME280;23738;50.422;18.758;2023-02-28T02:38:49;99712.36;;;0.28;60.72
37904;BME280;23738;50.422;18.758;2023-02-28T02:41:23;99714.15;;;0.27;60.81
37904;BME280;23738;50.422;18.758;2023-02-28T02:43:54;99713.00;;;0.23;60.94
37904;BME280;23738;50.422;18.758;2023-02-28T02:46:26;99713.25;;;0.20;60.90
37904;BME280;23738;50.422;18.758;2023-02-28T02:48:57;99715.84;;;0.17;60.99
37904;BME280;23738;50.422;18.758;2023-02-28T02:51:29;99715.35;;;0.17;61.03
37904;BME280;23738;50.422;18.758;2023-02-28T02:54:20;99717.29;;;0.16;61.02
37904;BME280;23738;50.422;18.758;2023-02-28T02:57:10;99714.63;;;0.10;61.07
37904;BME280;23738;50.422;18.758;2023-02-28T02:59:42;99715.95;;;0.03;61.12
37904;BME280;23738;50.422;18.758;2023-02-28T03:02:12;99715.95;;;0.00;61.28
37904;BME280;23738;50.422;18.758;2023-02-28T03:04:45;99717.30;;;0.01;61.28
37904;BME280;23738;50.422;18.758;2023-02-28T03:07:14;99712.70;;;0.00;61.36
37904;BME280;23738;50.422;18.758;2023-02-28T03:09:51;99711.58;;;-0.01;61.33
37904;BME280;23738;50.422;18.758;2023-02-28T03:12:40;99711.52;;;-0.00;61.48
37904;BME280;23738;50.422;18.758;2023-02-28T03:15:15;99708.96;;;-0.01;61.47
37904;BME280;23738;50.422;18.758;2023-02-28T03:18:02;99709.10;;;-0.03;61.58
37904;BME280;23738;50.422;18.758;2023-02-28T03:20:37;99713.92;;;-0.08;61.50
37904;BME280;23738;50.422;18.758;2023-02-28T03:23:16;99717.13;;;-0.09;61.53
37904;BME280;23738;50.422;18.758;2023-02-28T03:25:54;99723.33;;;-0.11;61.57
37904;BME280;23738;50.422;18.758;2023-02-28T03:28:29;99726.90;;;-0.10;61.67
37904;BME280;23738;50.422;18.758;2023-02-28T03:31:02;99728.32;;;-0.13;61.57
37904;BME280;23738;50.422;18.758;2023-02-28T03:33:40;99727.61;;;-0.18;61.61
37904;BME280;23738;50.422;18.758;2023-02-28T03:36:12;99725.63;;;-0.22;61.60
37904;BME280;23738;50.422;18.758;2023-02-28T03:38:44;99725.39;;;-0.29;61.77
37904;BME280;23738;50.422;18.758;2023-02-28T03:41:35;99730.55;;;-0.28;61.76
37904;BME280;23738;50.422;18.758;2023-02-28T03:44:55;99734.95;;;-0.32;61.73
37904;BME280;23738;50.422;18.758;2023-02-28T03:47:27;99732.99;;;-0.33;61.96
37904;BME280;23738;50.422;18.758;2023-02-28T03:50:00;99736.91;;;-0.35;61.83
37904;BME280;23738;50.422;18.758;2023-02-28T03:52:31;99735.86;;;-0.35;62.04
37904;BME280;23738;50.422;18.758;2023-02-28T03:55:03;99739.08;;;-0.34;61.98
37904;BME280;23738;50.422;18.758;2023-02-28T03:57:56;99738.52;;;-0.33;62.15
37904;BME280;23738;50.422;18.758;2023-02-28T04:00:30;99737.28;;;-0.31;62.17
37904;BME280;23738;50.422;18.758;2023-02-28T04:03:20;99742.25;;;-0.30;62.28
37904;BME280;23738;50.422;18.758;2023-02-28T04:06:47;99746.66;;;-0.33;62.20
37904;BME280;23738;50.422;18.758;2023-02-28T04:10:15;99746.98;;;-0.41;62.12
37904;BME280;23738;50.422;18.758;2023-02-28T04:13:01;99745.63;;;-0.44;62.25
37904;BME280;23738;50.422;18.758;2023-02-28T04:15:48;99745.67;;;-0.42;62.49
37904;BME280;23738;50.422;18.758;2023-02-28T04:18:56;99748.35;;;-0.38;62.39
37904;BME280;23738;50.422;18.758;2023-02-28T04:21:29;99744.67;;;-0.38;62.52
37904;BME280;23738;50.422;18.758;2023-02-28T04:23:56;99745.09;;;-0.36;62.42
37904;BME280;23738;50.422;18.758;2023-02-28T04:26:29;99752.40;;;-0.42;62.50
37904;BME280;23738;50.422;18.758;2023-02-28T04:29:19;99750.17;;;-0.48;62.40
37904;BME280;23738;50.422;18.758;2023-02-28T04:36:21;99751.33;;;-0.57;62.57
37904;BME280;23738;50.422;18.758;2023-02-28T04:39:28;99756.02;;;-0.62;62.46
37904;BME280;23738;50.422;18.758;2023-02-28T04:41:56;99758.06;;;-0.67;62.58
37904;BME280;23738;50.422;18.758;2023-02-28T04:44:24;99758.63;;;-0.73;62.54
37904;BME280;23738;50.422;18.758;2023-02-28T04:46:51;99761.46;;;-0.77;62.69
37904;BME280;23738;50.422;18.758;2023-02-28T04:49:19;99767.05;;;-0.81;62.65
37904;BME280;23738;50.422;18.758;2023-02-28T04:51:47;99766.29;;;-0.82;62.74
37904;BME280;23738;50.422;18.758;2023-02-28T04:54:17;99765.40;;;-0.85;62.70
37904;BME280;23738;50.422;18.758;2023-02-28T04:56:45;99765.38;;;-0.87;62.70
37904;BME280;23738;50.422;18.758;2023-02-28T04:59:12;99764.55;;;-0.90;62.87
37904;BME280;23738;50.422;18.758;2023-02-28T05:01:40;99768.11;;;-0.92;62.92
37904;BME280;23738;50.422;18.758;2023-02-28T05:04:09;99762.64;;;-0.90;62.96
37904;BME280;23738;50.422;18.758;2023-02-28T05:06:37;99766.36;;;-0.86;63.03
37904;BME280;23738;50.422;18.758;2023-02-28T05:09:24;99768.43;;;-0.84;62.95
37904;BME280;23738;50.422;18.758;2023-02-28T05:11:52;99776.61;;;-0.84;63.02
37904;BME280;23738;50.422;18.758;2023-02-28T05:14:19;99775.36;;;-0.89;62.99
37904;BME280;23738;50.422;18.758;2023-02-28T05:16:47;99775.58;;;-0.92;62.93
37904;BME280;23738;50.422;18.758;2023-02-28T05:19:14;99773.41;;;-0.99;62.93
37904;BME280;23738;50.422;18.758;2023-02-28T05:21:49;99778.89;;;-1.04;63.02
37904;BME280;23738;50.422;18.758;2023-02-28T05:24:18;99779.29;;;-1.04;63.06
37904;BME280;23738;50.422;18.758;2023-02-28T05:26:50;99780.16;;;-1.07;63.17
37904;BME280;23738;50.422;18.758;2023-02-28T05:29:18;99786.22;;;-1.10;63.21
37904;BME280;23738;50.422;18.758;2023-02-28T05:31:48;99788.91;;;-1.09;63.28
37904;BME280;23738;50.422;18.758;2023-02-28T05:34:16;99789.01;;;-1.08;63.26
37904;BME280;23738;50.422;18.758;2023-02-28T05:36:51;99791.59;;;-1.13;63.20
37904;BME280;23738;50.422;18.758;2023-02-28T05:39:18;99792.08;;;-1.18;63.14
37904;BME280;23738;50.422;18.758;2023-02-28T05:41:46;99792.23;;;-1.23;63.17
37904;BME280;23738;50.422;18.758;2023-02-28T05:44:13;99794.29;;;-1.26;63.22
37904;BME280;23738;50.422;18.758;2023-02-28T05:46:42;99799.40;;;-1.28;63.39
37904;BME280;23738;50.422;18.758;2023-02-28T05:49:10;99803.71;;;-1.30;63.38
37904;BME280;23738;50.422;18.758;2023-02-28T05:51:38;99803.58;;;-1.31;63.32
37904;BME280;23738;50.422;18.758;2023-02-28T05:54:07;99805.23;;;-1.30;63.55
37904;BME280;23738;50.422;18.758;2023-02-28T05:56:35;99804.34;;;-1.32;63.59
37904;BME280;23738;50.422;18.758;2023-02-28T05:59:04;99808.67;;;-1.29;63.61
37904;BME280;23738;50.422;18.758;2023-02-28T06:01:49;99805.90;;;-1.27;63.69
37904;BME280;23738;50.422;18.758;2023-02-28T06:04:18;99813.55;;;-1.22;63.82
37904;BME280;23738;50.422;18.758;2023-02-28T06:06:53;99812.16;;;-1.16;63.91
37904;BME280;23738;50.422;18.758;2023-02-28T06:09:21;99813.82;;;-1.06;63.95
37904;BME280;23738;50.422;18.758;2023-02-28T06:12:09;99819.91;;;-1.02;63.87
37904;BME280;23738;50.422;18.758;2023-02-28T06:14:52;99822.16;;;-0.93;64.06
37904;BME280;23738;50.422;18.758;2023-02-28T06:17:24;99830.27;;;-0.82;64.03
37904;BME280;23738;50.422;18.758;2023-02-28T06:19:51;99826.98;;;-0.73;64.05
37904;BME280;23738;50.422;18.758;2023-02-28T06:22:19;99827.94;;;-0.65;64.05
37904;BME280;23738;50.422;18.758;2023-02-28T06:24:46;99829.95;;;-0.53;64.20
37904;BME280;23738;50.422;18.758;2023-02-28T06:27:14;99834.61;;;-0.36;64.21
37904;BME280;23738;50.422;18.758;2023-02-28T06:29:41;99832.13;;;-0.28;64.12
37904;BME280;23738;50.422;18.758;2023-02-28T06:32:09;99835.81;;;-0.23;64.06
37904;BME280;23738;50.422;18.758;2023-02-28T06:34:37;99836.79;;;-0.17;63.89
37904;BME280;23738;50.422;18.758;2023-02-28T06:37:04;99834.90;;;-0.12;63.92
37904;BME280;23738;50.422;18.758;2023-02-28T06:39:32;99832.34;;;-0.10;63.74
37904;BME280;23738;50.422;18.758;2023-02-28T06:42:00;99836.25;;;-0.06;63.66
37904;BME280;23738;50.422;18.758;2023-02-28T06:44:27;99837.83;;;-0.04;63.75
37904;BME280;23738;50.422;18.758;2023-02-28T06:47:02;99837.52;;;0.01;63.64
37904;BME280;23738;50.422;18.758;2023-02-28T06:49:30;99834.11;;;0.03;63.70
37904;BME280;23738;50.422;18.758;2023-02-28T06:51:58;99840.58;;;0.10;63.52
37904;BME280;23738;50.422;18.758;2023-02-28T06:54:25;99845.27;;;0.12;63.47
37904;BME280;23738;50.422;18.758;2023-02-28T06:56:54;99848.24;;;0.25;63.63
37904;BME280;23738;50.422;18.758;2023-02-28T06:59:21;99851.25;;;0.34;63.38
37904;BME280;23738;50.422;18.758;2023-02-28T07:01:48;99847.88;;;0.40;63.46
37904;BME280;23738;50.422;18.758;2023-02-28T07:04:16;99848.87;;;0.54;63.53
37904;BME280;23738;50.422;18.758;2023-02-28T07:06:44;99848.31;;;0.69;63.66
37904;BME280;23738;50.422;18.758;2023-02-28T07:09:11;99840.40;;;0.76;63.50
37904;BME280;23738;50.422;18.758;2023-02-28T07:11:39;99837.16;;;0.85;63.53
37904;BME280;23738;50.422;18.758;2023-02-28T07:14:07;99841.58;;;1.01;63.50
37904;BME280;23738;50.422;18.758;2023-02-28T07:16:35;99841.48;;;1.15;63.30
37904;BME280;23738;50.422;18.758;2023-02-28T07:19:03;99839.66;;;1.23;63.50
37904;BME280;23738;50.422;18.758;2023-02-28T07:21:30;99841.02;;;1.40;63.50
37904;BME280;23738;50.422;18.758;2023-02-28T07:23:58;99843.09;;;1.53;63.21
37904;BME280;23738;50.422;18.758;2023-02-28T07:26:25;99838.79;;;1.60;62.92
37904;BME280;23738;50.422;18.758;2023-02-28T07:28:53;99841.41;;;1.67;63.26
37904;BME280;23738;50.422;18.758;2023-02-28T07:31:21;99842.36;;;1.75;62.98
37904;BME280;23738;50.422;18.758;2023-02-28T07:33:48;99844.77;;;1.82;63.17
37904;BME280;23738;50.422;18.758;2023-02-28T07:36:17;99848.95;;;1.91;63.04
37904;BME280;23738;50.422;18.758;2023-02-28T07:38:47;99849.27;;;2.04;63.26
37904;BME280;23738;50.422;18.758;2023-02-28T07:41:16;99852.68;;;2.16;62.90
37904;BME280;23738;50.422;18.758;2023-02-28T07:43:45;99853.30;;;2.26;62.72
37904;BME280;23738;50.422;18.758;2023-02-28T07:46:14;99851.61;;;2.40;63.17
37904;BME280;23738;50.422;18.758;2023-02-28T07:48:43;99849.89;;;2.57;62.96
37904;BME280;23738;50.422;18.758;2023-02-28T07:51:10;99852.36;;;2.73;62.83
37904;BME280;23738;50.422;18.758;2023-02-28T07:53:38;99846.80;;;2.84;62.88
37904;BME280;23738;50.422;18.758;2023-02-28T07:56:07;99847.73;;;2.98;62.84
37904;BME280;23738;50.422;18.758;2023-02-28T07:58:35;99842.86;;;3.12;62.55
37904;BME280;23738;50.422;18.758;2023-02-28T08:01:06;99843.98;;;3.22;62.77
37904;BME280;23738;50.422;18.758;2023-02-28T08:03:34;99843.33;;;3.39;62.71
37904;BME280;23738;50.422;18.758;2023-02-28T08:06:02;99840.54;;;3.52;62.25
37904;BME280;23738;50.422;18.758;2023-02-28T08:08:29;99842.73;;;3.57;62.55
37904;BME280;23738;50.422;18.758;2023-02-28T08:10:59;99844.41;;;3.73;62.56
37904;BME280;23738;50.422;18.758;2023-02-28T08:13:27;99843.86;;;3.86;62.37
37904;BME280;23738;50.422;18.758;2023-02-28T08:15:55;99842.41;;;3.97;62.44
37904;BME280;23738;50.422;18.758;2023-02-28T08:18:24;99844.96;;;4.06;62.16
37904;BME280;23738;50.422;18.758;2023-02-28T08:20:51;99841.92;;;4.14;61.99
37904;BME280;23738;50.422;18.758;2023-02-28T08:23:19;99842.67;;;4.13;61.85
37904;BME280;23738;50.422;18.758;2023-02-28T08:25:53;99842.64;;;4.15;61.93
37904;BME280;23738;50.422;18.758;2023-02-28T08:28:21;99843.19;;;4.17;61.72
37904;BME280;23738;50.422;18.758;2023-02-28T08:30:48;99846.75;;;4.14;61.54
37904;BME280;23738;50.422;18.758;2023-02-28T08:33:16;99849.98;;;4.17;61.72
37904;BME280;23738;50.422;18.758;2023-02-28T08:35:43;99852.33;;;4.16;61.50
37904;BME280;23738;50.422;18.758;2023-02-28T08:38:11;99849.84;;;4.12;61.40
37904;BME280;23738;50.422;18.758;2023-02-28T08:40:38;99849.85;;;4.08;61.15
37904;BME280;23738;50.422;18.758;2023-02-28T08:43:06;99854.89;;;4.04;61.15
37904;BME280;23738;50.422;18.758;2023-02-28T08:45:33;99851.26;;;4.12;61.09
37904;BME280;23738;50.422;18.758;2023-02-28T08:48:01;99849.80;;;4.09;60.94
37904;BME280;23738;50.422;18.758;2023-02-28T08:50:28;99854.95;;;4.06;60.89
37904;BME280;23738;50.422;18.758;2023-02-28T08:52:56;99852.85;;;4.02;60.72
37904;BME280;23738;50.422;18.758;2023-02-28T08:55:24;99854.77;;;4.01;60.68
37904;BME280;23738;50.422;18.758;2023-02-28T08:57:51;99854.57;;;3.96;60.71
37904;BME280;23738;50.422;18.758;2023-02-28T09:00:23;99854.86;;;3.96;60.80
37904;BME280;23738;50.422;18.758;2023-02-28T09:02:51;99848.60;;;4.00;60.77
37904;BME280;23738;50.422;18.758;2023-02-28T09:05:20;99849.68;;;4.04;60.90
37904;BME280;23738;50.422;18.758;2023-02-28T09:10:36;99853.91;;;3.95;60.71
37904;BME280;23738;50.422;18.758;2023-02-28T09:13:03;99854.58;;;3.91;60.64
37904;BME280;23738;50.422;18.758;2023-02-28T09:15:31;99853.94;;;3.95;60.53
37904;BME280;23738;50.422;18.758;2023-02-28T09:18:01;99852.34;;;4.03;60.58
37904;BME280;23738;50.422;18.758;2023-02-28T09:20:29;99854.27;;;4.06;60.42
37904;BME280;23738;50.422;18.758;2023-02-28T09:22:56;99853.17;;;4.15;60.60
37904;BME280;23738;50.422;18.758;2023-02-28T09:25:24;99853.23;;;4.24;60.25
37904;BME280;23738;50.422;18.758;2023-02-28T09:27:51;99855.05;;;4.34;60.43
37904;BME280;23738;50.422;18.758;2023-02-28T09:30:19;99852.71;;;4.57;60.52
37904;BME280;23738;50.422;18.758;2023-02-28T09:32:46;99859.05;;;4.73;60.27
37904;BME280;23738;50.422;18.758;2023-02-28T09:35:18;99858.21;;;4.89;60.47
37904;BME280;23738;50.422;18.758;2023-02-28T09:37:48;99855.08;;;4.95;60.26
37904;BME280;23738;50.422;18.758;2023-02-28T09:40:16;99858.84;;;4.92;59.81
37904;BME280;23738;50.422;18.758;2023-02-28T09:42:47;99856.88;;;4.88;59.83
37904;BME280;23738;50.422;18.758;2023-02-28T09:45:22;99853.88;;;4.93;60.17
37904;BME280;23738;50.422;18.758;2023-02-28T09:47:53;99854.27;;;4.96;60.26
37904;BME280;23738;50.422;18.758;2023-02-28T09:50:30;99850.90;;;5.07;60.15
37904;BME280;23738;50.422;18.758;2023-02-28T09:53:03;99855.69;;;5.22;60.11
37904;BME280;23738;50.422;18.758;2023-02-28T09:55:33;99855.60;;;5.19;59.54
37904;BME280;23738;50.422;18.758;2023-02-28T09:58:02;99862.70;;;5.14;59.61
37904;BME280;23738;50.422;18.758;2023-02-28T10:00:33;99862.60;;;5.13;59.76
37904;BME280;23738;50.422;18.758;2023-02-28T10:03:28;99861.28;;;5.16;59.59
